sensor_id;sensor_type;location;lat;lon;timestamp;temperature;humidity
14705;DHT22;7442;50.840;3.396;2022-08-01T00:00:39;27.20;54.20
14705;DHT22;7442;50.840;3.396;2022-08-01T00:03:07;27.20;54.20
14705;DHT22;7442;50.840;3.396;2022-08-01T00:05:36;27.10;54.20
14705;DHT22;7442;50.840;3.396;2022-08-01T00:08:04;27.10;54.30
14705;DHT22;7442;50.840;3.396;2022-08-01T00:10:33;27.10;54.30
14705;DHT22;7442;50.840;3.396;2022-08-01T00:13:01;27.10;54.30
14705;DHT22;7442;50.840;3.396;2022-08-01T00:15:29;27.20;54.20
14705;DHT22;7442;50.840;3.396;2022-08-01T00:17:57;27.30;54.10
14705;DHT22;7442;50.840;3.396;2022-08-01T00:20:31;27.20;54.00
14705;DHT22;7442;50.840;3.396;2022-08-01T00:22:58;27.20;54.00
14705;DHT22;7442;50.840;3.396;2022-08-01T00:25:26;27.30;54.00
14705;DHT22;7442;50.840;3.396;2022-08-01T00:27:54;27.30;53.90
14705;DHT22;7442;50.840;3.396;2022-08-01T00:30:22;27.30;53.70
14705;DHT22;7442;50.840;3.396;2022-08-01T00:32:49;27.30;53.70
14705;DHT22;7442;50.840;3.396;2022-08-01T00:35:17;27.40;53.80
14705;DHT22;7442;50.840;3.396;2022-08-01T00:37:45;27.30;53.70
14705;DHT22;7442;50.840;3.396;2022-08-01T00:40:13;27.40;53.60
14705;DHT22;7442;50.840;3.396;2022-08-01T00:42:41;27.40;53.50
14705;DHT22;7442;50.840;3.396;2022-08-01T00:47:30;27.40;53.50
14705;DHT22;7442;50.840;3.396;2022-08-01T00:50:16;27.40;53.30
14705;DHT22;7442;50.840;3.396;2022-08-01T00:53:03;27.50;53.60
14705;DHT22;7442;50.840;3.396;2022-08-01T00:55:49;27.40;53.40
14705;DHT22;7442;50.840;3.396;2022-08-01T00:58:36;27.40;53.40
14705;DHT22;7442;50.840;3.396;2022-08-01T01:01:23;27.40;53.50
14705;DHT22;7442;50.840;3.396;2022-08-01T01:04:09;27.30;53.60
14705;DHT22;7442;50.840;3.396;2022-08-01T01:07:09;27.30;53.80
14705;DHT22;7442;50.840;3.396;2022-08-01T01:13:05;27.20;54.00
14705;DHT22;7442;50.840;3.396;2022-08-01T01:15:59;27.10;54.00
14705;DHT22;7442;50.840;3.396;2022-08-01T01:18:57;27.10;54.10
14705;DHT22;7442;50.840;3.396;2022-08-01T01:30:48;27.20;53.80
14705;DHT22;7442;50.840;3.396;2022-08-01T01:33:36;27.20;53.70
14705;DHT22;7442;50.840;3.396;2022-08-01T01:36:26;27.20;53.70
14705;DHT22;7442;50.840;3.396;2022-08-01T01:39:15;27.20;53.90
14705;DHT22;7442;50.840;3.396;2022-08-01T01:42:08;27.20;53.90
14705;DHT22;7442;50.840;3.396;2022-08-01T01:44:52;27.20;53.80
14705;DHT22;7442;50.840;3.396;2022-08-01T01:47:42;27.20;53.70
14705;DHT22;7442;50.840;3.396;2022-08-01T01:50:30;27.20;53.60
14705;DHT22;7442;50.840;3.396;2022-08-01T01:53:19;27.20;53.60
14705;DHT22;7442;50.840;3.396;2022-08-01T01:56:06;27.30;53.60
14705;DHT22;7442;50.840;3.396;2022-08-01T01:58:57;27.30;53.60
14705;DHT22;7442;50.840;3.396;2022-08-01T02:01:44;27.30;53.30
14705;DHT22;7442;50.840;3.396;2022-08-01T02:04:35;27.30;53.30
14705;DHT22;7442;50.840;3.396;2022-08-01T02:07:24;27.30;53.30
14705;DHT22;7442;50.840;3.396;2022-08-01T02:10:11;27.30;53.40
14705;DHT22;7442;50.840;3.396;2022-08-01T02:12:59;27.30;53.50
14705;DHT22;7442;50.840;3.396;2022-08-01T02:15:48;27.30;53.50
14705;DHT22;7442;50.840;3.396;2022-08-01T02:18:35;27.30;53.50
14705;DHT22;7442;50.840;3.396;2022-08-01T02:21:28;27.20;53.50
14705;DHT22;7442;50.840;3.396;2022-08-01T02:24:26;27.20;53.70
14705;DHT22;7442;50.840;3.396;2022-08-01T02:27:28;27.10;54.20
14705;DHT22;7442;50.840;3.396;2022-08-01T02:30:12;27.10;53.70
14705;DHT22;7442;50.840;3.396;2022-08-01T02:33:17;27.10;53.80
14705;DHT22;7442;50.840;3.396;2022-08-01T02:36:05;27.10;53.60
14705;DHT22;7442;50.840;3.396;2022-08-01T02:38:53;27.20;53.70
14705;DHT22;7442;50.840;3.396;2022-08-01T02:41:43;27.10;53.60
14705;DHT22;7442;50.840;3.396;2022-08-01T02:44:32;27.10;53.60
14705;DHT22;7442;50.840;3.396;2022-08-01T02:47:22;27.20;53.50
14705;DHT22;7442;50.840;3.396;2022-08-01T02:50:12;27.10;53.50
14705;DHT22;7442;50.840;3.396;2022-08-01T02:53:00;27.20;53.50
14705;DHT22;7442;50.840;3.396;2022-08-01T02:55:48;27.20;53.50
14705;DHT22;7442;50.840;3.396;2022-08-01T02:58:36;27.20;53.50
14705;DHT22;7442;50.840;3.396;2022-08-01T03:01:24;27.20;53.50
14705;DHT22;7442;50.840;3.396;2022-08-01T03:04:11;27.20;53.40
14705;DHT22;7442;50.840;3.396;2022-08-01T03:06:58;27.20;53.50
14705;DHT22;7442;50.840;3.396;2022-08-01T03:09:47;27.10;53.30
14705;DHT22;7442;50.840;3.396;2022-08-01T03:12:35;27.20;53.40
14705;DHT22;7442;50.840;3.396;2022-08-01T03:15:23;27.10;53.30
14705;DHT22;7442;50.840;3.396;2022-08-01T03:18:12;27.10;53.50
14705;DHT22;7442;50.840;3.396;2022-08-01T03:21:02;27.10;53.50
14705;DHT22;7442;50.840;3.396;2022-08-01T03:23:53;27.10;53.60
14705;DHT22;7442;50.840;3.396;2022-08-01T03:26:42;27.00;53.40
14705;DHT22;7442;50.840;3.396;2022-08-01T03:29:30;27.10;53.60
14705;DHT22;7442;50.840;3.396;2022-08-01T03:32:19;27.10;53.50
14705;DHT22;7442;50.840;3.396;2022-08-01T03:35:07;27.10;53.40
14705;DHT22;7442;50.840;3.396;2022-08-01T03:37:55;27.10;53.40
14705;DHT22;7442;50.840;3.396;2022-08-01T03:40:51;27.10;53.40
14705;DHT22;7442;50.840;3.396;2022-08-01T03:43:40;27.10;53.40
14705;DHT22;7442;50.840;3.396;2022-08-01T03:46:40;27.00;53.50
14705;DHT22;7442;50.840;3.396;2022-08-01T03:49:30;27.00;53.50
14705;DHT22;7442;50.840;3.396;2022-08-01T03:52:17;27.00;53.60
14705;DHT22;7442;50.840;3.396;2022-08-01T03:55:05;26.90;53.60
14705;DHT22;7442;50.840;3.396;2022-08-01T03:57:56;27.00;53.60
14705;DHT22;7442;50.840;3.396;2022-08-01T04:00:43;27.00;53.60
14705;DHT22;7442;50.840;3.396;2022-08-01T04:03:30;27.00;53.60
14705;DHT22;7442;50.840;3.396;2022-08-01T04:06:16;27.00;53.50
14705;DHT22;7442;50.840;3.396;2022-08-01T04:09:06;27.00;53.50
14705;DHT22;7442;50.840;3.396;2022-08-01T04:11:53;27.10;53.40
14705;DHT22;7442;50.840;3.396;2022-08-01T04:14:39;27.00;53.30
14705;DHT22;7442;50.840;3.396;2022-08-01T04:17:26;27.00;53.40
14705;DHT22;7442;50.840;3.396;2022-08-01T04:20:12;27.00;53.40
14705;DHT22;7442;50.840;3.396;2022-08-01T04:22:59;27.00;53.40
14705;DHT22;7442;50.840;3.396;2022-08-01T04:25:46;26.90;53.60
14705;DHT22;7442;50.840;3.396;2022-08-01T04:28:36;26.90;53.70
14705;DHT22;7442;50.840;3.396;2022-08-01T04:31:24;26.80;53.70
14705;DHT22;7442;50.840;3.396;2022-08-01T04:34:14;26.80;53.70
14705;DHT22;7442;50.840;3.396;2022-08-01T04:37:02;26.80;53.70
14705;DHT22;7442;50.840;3.396;2022-08-01T04:39:52;26.80;53.70
14705;DHT22;7442;50.840;3.396;2022-08-01T04:42:38;26.80;53.80
14705;DHT22;7442;50.840;3.396;2022-08-01T04:45:26;26.70;53.90
14705;DHT22;7442;50.840;3.396;2022-08-01T04:48:15;26.70;53.80
14705;DHT22;7442;50.840;3.396;2022-08-01T04:51:01;26.80;53.80
14705;DHT22;7442;50.840;3.396;2022-08-01T04:53:49;26.80;53.80
14705;DHT22;7442;50.840;3.396;2022-08-01T04:56:36;26.70;53.70
14705;DHT22;7442;50.840;3.396;2022-08-01T04:59:22;26.80;53.70
14705;DHT22;7442;50.840;3.396;2022-08-01T05:02:26;26.80;53.70
14705;DHT22;7442;50.840;3.396;2022-08-01T05:05:14;26.80;53.70
14705;DHT22;7442;50.840;3.396;2022-08-01T05:08:00;26.80;53.70
14705;DHT22;7442;50.840;3.396;2022-08-01T05:10:46;26.80;53.70
14705;DHT22;7442;50.840;3.396;2022-08-01T05:13:33;26.80;53.70
14705;DHT22;7442;50.840;3.396;2022-08-01T05:16:19;26.90;53.50
14705;DHT22;7442;50.840;3.396;2022-08-01T05:19:06;26.90;53.40
14705;DHT22;7442;50.840;3.396;2022-08-01T05:21:53;26.80;54.00
14705;DHT22;7442;50.840;3.396;2022-08-01T05:24:41;26.90;53.90
14705;DHT22;7442;50.840;3.396;2022-08-01T05:27:28;26.90;53.70
14705;DHT22;7442;50.840;3.396;2022-08-01T05:30:14;27.00;53.70
14705;DHT22;7442;50.840;3.396;2022-08-01T05:33:00;27.00;54.20
14705;DHT22;7442;50.840;3.396;2022-08-01T05:35:46;27.10;53.90
14705;DHT22;7442;50.840;3.396;2022-08-01T05:38:33;27.10;54.10
14705;DHT22;7442;50.840;3.396;2022-08-01T05:41:20;27.10;54.00
14705;DHT22;7442;50.840;3.396;2022-08-01T05:44:08;27.00;54.10
14705;DHT22;7442;50.840;3.396;2022-08-01T05:46:54;27.10;54.00
14705;DHT22;7442;50.840;3.396;2022-08-01T05:49:48;27.10;54.10
14705;DHT22;7442;50.840;3.396;2022-08-01T05:52:34;27.10;54.20
14705;DHT22;7442;50.840;3.396;2022-08-01T05:55:21;27.10;54.40
14705;DHT22;7442;50.840;3.396;2022-08-01T05:58:07;27.10;54.50
14705;DHT22;7442;50.840;3.396;2022-08-01T06:00:56;27.10;54.50
14705;DHT22;7442;50.840;3.396;2022-08-01T06:03:42;27.00;54.50
14705;DHT22;7442;50.840;3.396;2022-08-01T06:06:29;27.10;54.60
14705;DHT22;7442;50.840;3.396;2022-08-01T06:09:15;27.10;54.50
14705;DHT22;7442;50.840;3.396;2022-08-01T06:12:02;27.10;54.30
14705;DHT22;7442;50.840;3.396;2022-08-01T06:14:51;27.10;54.30
14705;DHT22;7442;50.840;3.396;2022-08-01T06:17:37;27.20;54.30
14705;DHT22;7442;50.840;3.396;2022-08-01T06:20:31;27.20;54.30
14705;DHT22;7442;50.840;3.396;2022-08-01T06:23:18;27.10;54.40
14705;DHT22;7442;50.840;3.396;2022-08-01T06:26:06;27.10;54.30
14705;DHT22;7442;50.840;3.396;2022-08-01T06:28:52;27.20;54.20
14705;DHT22;7442;50.840;3.396;2022-08-01T06:31:39;27.20;54.20
14705;DHT22;7442;50.840;3.396;2022-08-01T06:34:26;27.20;54.40
14705;DHT22;7442;50.840;3.396;2022-08-01T06:37:12;27.20;54.60
14705;DHT22;7442;50.840;3.396;2022-08-01T06:39:42;27.20;55.10
14705;DHT22;7442;50.840;3.396;2022-08-01T06:42:10;27.30;55.00
14705;DHT22;7442;50.840;3.396;2022-08-01T06:44:57;27.30;54.80
14705;DHT22;7442;50.840;3.396;2022-08-01T06:47:50;27.30;54.80
14705;DHT22;7442;50.840;3.396;2022-08-01T06:50:36;27.20;55.00
14705;DHT22;7442;50.840;3.396;2022-08-01T06:53:23;27.30;55.00
14705;DHT22;7442;50.840;3.396;2022-08-01T06:56:11;27.30;55.10
14705;DHT22;7442;50.840;3.396;2022-08-01T06:58:58;27.30;55.00
14705;DHT22;7442;50.840;3.396;2022-08-01T07:01:45;27.30;55.00
14705;DHT22;7442;50.840;3.396;2022-08-01T07:04:32;27.30;55.00
14705;DHT22;7442;50.840;3.396;2022-08-01T07:07:19;27.30;55.20
14705;DHT22;7442;50.840;3.396;2022-08-01T07:10:08;27.30;55.10
14705;DHT22;7442;50.840;3.396;2022-08-01T07:12:54;27.30;55.10
14705;DHT22;7442;50.840;3.396;2022-08-01T07:15:41;27.30;55.10
14705;DHT22;7442;50.840;3.396;2022-08-01T07:18:28;27.30;55.10
14705;DHT22;7442;50.840;3.396;2022-08-01T07:21:14;27.40;54.80
14705;DHT22;7442;50.840;3.396;2022-08-01T07:24:03;27.40;54.90
14705;DHT22;7442;50.840;3.396;2022-08-01T07:26:49;27.40;55.10
14705;DHT22;7442;50.840;3.396;2022-08-01T07:29:36;27.40;55.40
14705;DHT22;7442;50.840;3.396;2022-08-01T07:32:22;27.40;54.90
14705;DHT22;7442;50.840;3.396;2022-08-01T07:35:13;27.30;55.70
14705;DHT22;7442;50.840;3.396;2022-08-01T07:37:58;27.20;56.20
14705;DHT22;7442;50.840;3.396;2022-08-01T07:40:45;27.10;56.10
14705;DHT22;7442;50.840;3.396;2022-08-01T07:43:31;27.10;56.40
14705;DHT22;7442;50.840;3.396;2022-08-01T07:46:18;27.10;56.70
14705;DHT22;7442;50.840;3.396;2022-08-01T07:49:05;27.10;57.00
14705;DHT22;7442;50.840;3.396;2022-08-01T07:51:51;27.00;57.20
14705;DHT22;7442;50.840;3.396;2022-08-01T07:54:37;27.10;57.10
14705;DHT22;7442;50.840;3.396;2022-08-01T07:57:24;27.20;56.60
14705;DHT22;7442;50.840;3.396;2022-08-01T08:00:12;27.20;56.80
14705;DHT22;7442;50.840;3.396;2022-08-01T08:02:58;27.10;57.00
14705;DHT22;7442;50.840;3.396;2022-08-01T08:05:44;27.00;57.00
14705;DHT22;7442;50.840;3.396;2022-08-01T08:08:31;26.80;56.50
14705;DHT22;7442;50.840;3.396;2022-08-01T08:11:19;26.70;57.00
14705;DHT22;7442;50.840;3.396;2022-08-01T08:14:05;26.80;56.80
14705;DHT22;7442;50.840;3.396;2022-08-01T08:16:52;26.90;56.30
14705;DHT22;7442;50.840;3.396;2022-08-01T08:19:38;26.80;55.90
14705;DHT22;7442;50.840;3.396;2022-08-01T08:22:25;26.90;55.90
14705;DHT22;7442;50.840;3.396;2022-08-01T08:25:17;26.80;56.40
14705;DHT22;7442;50.840;3.396;2022-08-01T08:28:08;27.00;55.60
14705;DHT22;7442;50.840;3.396;2022-08-01T08:30:54;26.90;55.30
14705;DHT22;7442;50.840;3.396;2022-08-01T08:33:41;26.90;55.60
14705;DHT22;7442;50.840;3.396;2022-08-01T08:36:27;26.90;55.00
14705;DHT22;7442;50.840;3.396;2022-08-01T08:39:15;27.00;54.50
14705;DHT22;7442;50.840;3.396;2022-08-01T08:42:08;27.00;54.60
14705;DHT22;7442;50.840;3.396;2022-08-01T08:44:51;27.00;54.40
14705;DHT22;7442;50.840;3.396;2022-08-01T08:47:40;27.10;54.70
14705;DHT22;7442;50.840;3.396;2022-08-01T08:50:28;27.10;54.40
14705;DHT22;7442;50.840;3.396;2022-08-01T08:53:15;27.20;54.20
14705;DHT22;7442;50.840;3.396;2022-08-01T08:56:02;27.40;53.60
14705;DHT22;7442;50.840;3.396;2022-08-01T08:58:52;27.50;52.70
14705;DHT22;7442;50.840;3.396;2022-08-01T09:01:38;27.60;52.50
14705;DHT22;7442;50.840;3.396;2022-08-01T09:04:25;27.70;52.10
14705;DHT22;7442;50.840;3.396;2022-08-01T09:07:19;27.50;52.50
14705;DHT22;7442;50.840;3.396;2022-08-01T09:10:06;27.40;52.50
14705;DHT22;7442;50.840;3.396;2022-08-01T09:13:05;27.40;52.60
14705;DHT22;7442;50.840;3.396;2022-08-01T09:15:54;27.40;52.10
14705;DHT22;7442;50.840;3.396;2022-08-01T09:18:40;27.40;52.50
14705;DHT22;7442;50.840;3.396;2022-08-01T09:21:28;27.40;52.80
14705;DHT22;7442;50.840;3.396;2022-08-01T09:24:16;27.40;52.80
14705;DHT22;7442;50.840;3.396;2022-08-01T09:27:16;27.20;53.30
14705;DHT22;7442;50.840;3.396;2022-08-01T09:30:14;27.30;52.90
14705;DHT22;7442;50.840;3.396;2022-08-01T09:33:03;27.30;53.20
14705;DHT22;7442;50.840;3.396;2022-08-01T09:35:57;27.30;53.40
14705;DHT22;7442;50.840;3.396;2022-08-01T09:38:43;27.30;53.30
14705;DHT22;7442;50.840;3.396;2022-08-01T09:41:31;27.30;53.40
14705;DHT22;7442;50.840;3.396;2022-08-01T09:44:18;27.20;53.50
14705;DHT22;7442;50.840;3.396;2022-08-01T09:47:06;27.30;53.30
14705;DHT22;7442;50.840;3.396;2022-08-01T09:49:57;27.30;52.90
14705;DHT22;7442;50.840;3.396;2022-08-01T09:52:53;27.30;53.00
14705;DHT22;7442;50.840;3.396;2022-08-01T09:55:34;27.30;52.90
14705;DHT22;7442;50.840;3.396;2022-08-01T09:58:21;27.10;53.10
14705;DHT22;7442;50.840;3.396;2022-08-01T10:01:07;27.20;52.90
14705;DHT22;7442;50.840;3.396;2022-08-01T10:04:13;27.30;53.00
14705;DHT22;7442;50.840;3.396;2022-08-01T10:07:08;27.40;53.80
14705;DHT22;7442;50.840;3.396;2022-08-01T10:09:56;27.50;53.10
14705;DHT22;7442;50.840;3.396;2022-08-01T10:12:44;27.40;53.60
14705;DHT22;7442;50.840;3.396;2022-08-01T10:15:31;27.50;53.30
14705;DHT22;7442;50.840;3.396;2022-08-01T10:18:17;27.70;52.80
14705;DHT22;7442;50.840;3.396;2022-08-01T10:21:04;27.80;52.50
14705;DHT22;7442;50.840;3.396;2022-08-01T10:23:58;27.90;52.10
14705;DHT22;7442;50.840;3.396;2022-08-01T10:26:48;28.00;52.00
14705;DHT22;7442;50.840;3.396;2022-08-01T10:29:55;28.10;51.40
14705;DHT22;7442;50.840;3.396;2022-08-01T10:32:43;28.10;51.70
14705;DHT22;7442;50.840;3.396;2022-08-01T10:35:33;28.20;51.70
14705;DHT22;7442;50.840;3.396;2022-08-01T10:38:20;28.10;51.50
14705;DHT22;7442;50.840;3.396;2022-08-01T10:41:15;28.20;51.20
14705;DHT22;7442;50.840;3.396;2022-08-01T10:44:01;28.10;51.30
14705;DHT22;7442;50.840;3.396;2022-08-01T10:46:56;28.20;50.90
14705;DHT22;7442;50.840;3.396;2022-08-01T10:50:00;28.20;50.40
14705;DHT22;7442;50.840;3.396;2022-08-01T10:56:04;28.20;50.90
14705;DHT22;7442;50.840;3.396;2022-08-01T10:59:12;28.20;50.70
14705;DHT22;7442;50.840;3.396;2022-08-01T11:02:00;28.30;50.10
14705;DHT22;7442;50.840;3.396;2022-08-01T11:07:53;28.60;49.70
14705;DHT22;7442;50.840;3.396;2022-08-01T11:10:43;28.60;49.60
14705;DHT22;7442;50.840;3.396;2022-08-01T11:16:41;28.40;49.70
14705;DHT22;7442;50.840;3.396;2022-08-01T11:20:03;28.40;49.70
14705;DHT22;7442;50.840;3.396;2022-08-01T11:22:18;28.50;49.50
14705;DHT22;7442;50.840;3.396;2022-08-01T11:25:06;28.60;49.30
14705;DHT22;7442;50.840;3.396;2022-08-01T11:34:02;28.50;49.30
14705;DHT22;7442;50.840;3.396;2022-08-01T11:36:48;28.40;49.20
14705;DHT22;7442;50.840;3.396;2022-08-01T11:39:36;28.50;49.00
14705;DHT22;7442;50.840;3.396;2022-08-01T11:42:23;28.60;48.60
14705;DHT22;7442;50.840;3.396;2022-08-01T11:45:10;28.70;48.20
14705;DHT22;7442;50.840;3.396;2022-08-01T11:47:56;28.60;48.90
14705;DHT22;7442;50.840;3.396;2022-08-01T11:50:42;28.50;48.80
14705;DHT22;7442;50.840;3.396;2022-08-01T11:53:29;28.30;49.10
14705;DHT22;7442;50.840;3.396;2022-08-01T11:56:19;28.30;49.10
14705;DHT22;7442;50.840;3.396;2022-08-01T11:59:06;28.20;49.50
14705;DHT22;7442;50.840;3.396;2022-08-01T12:01:53;28.40;48.90
14705;DHT22;7442;50.840;3.396;2022-08-01T12:04:58;28.50;48.80
14705;DHT22;7442;50.840;3.396;2022-08-01T12:07:42;28.30;49.10
14705;DHT22;7442;50.840;3.396;2022-08-01T12:10:34;28.30;48.90
14705;DHT22;7442;50.840;3.396;2022-08-01T12:13:24;28.40;48.80
14705;DHT22;7442;50.840;3.396;2022-08-01T12:16:11;28.60;48.60
14705;DHT22;7442;50.840;3.396;2022-08-01T12:18:58;28.60;48.70
14705;DHT22;7442;50.840;3.396;2022-08-01T12:21:45;28.40;48.50
14705;DHT22;7442;50.840;3.396;2022-08-01T12:24:35;28.40;48.50
14705;DHT22;7442;50.840;3.396;2022-08-01T12:27:27;28.50;48.30
14705;DHT22;7442;50.840;3.396;2022-08-01T12:30:18;28.60;47.80
14705;DHT22;7442;50.840;3.396;2022-08-01T12:33:07;28.80;47.90
14705;DHT22;7442;50.840;3.396;2022-08-01T12:35:54;28.70;48.30
14705;DHT22;7442;50.840;3.396;2022-08-01T12:38:42;28.50;48.10
14705;DHT22;7442;50.840;3.396;2022-08-01T12:41:29;28.30;48.10
14705;DHT22;7442;50.840;3.396;2022-08-01T12:44:16;28.40;47.90
14705;DHT22;7442;50.840;3.396;2022-08-01T12:47:05;28.50;47.70
14705;DHT22;7442;50.840;3.396;2022-08-01T12:49:52;28.70;47.40
14705;DHT22;7442;50.840;3.396;2022-08-01T12:52:38;28.70;47.50
14705;DHT22;7442;50.840;3.396;2022-08-01T12:55:26;28.70;47.40
14705;DHT22;7442;50.840;3.396;2022-08-01T12:58:14;28.70;47.70
14705;DHT22;7442;50.840;3.396;2022-08-01T13:01:10;28.60;47.20
14705;DHT22;7442;50.840;3.396;2022-08-01T13:04:01;28.70;47.10
14705;DHT22;7442;50.840;3.396;2022-08-01T13:06:53;28.80;47.30
14705;DHT22;7442;50.840;3.396;2022-08-01T13:09:50;28.90;47.40
14705;DHT22;7442;50.840;3.396;2022-08-01T13:12:38;28.90;47.10
14705;DHT22;7442;50.840;3.396;2022-08-01T13:15:30;28.80;46.90
14705;DHT22;7442;50.840;3.396;2022-08-01T13:18:28;28.90;47.00
14705;DHT22;7442;50.840;3.396;2022-08-01T13:21:24;28.90;47.00
14705;DHT22;7442;50.840;3.396;2022-08-01T13:24:07;28.90;46.90
14705;DHT22;7442;50.840;3.396;2022-08-01T13:27:03;28.70;46.80
14705;DHT22;7442;50.840;3.396;2022-08-01T13:29:49;28.80;46.80
14705;DHT22;7442;50.840;3.396;2022-08-01T13:32:37;28.90;46.90
14705;DHT22;7442;50.840;3.396;2022-08-01T13:35:24;28.80;47.10
14705;DHT22;7442;50.840;3.396;2022-08-01T13:38:11;28.60;46.90
14705;DHT22;7442;50.840;3.396;2022-08-01T13:41:00;28.70;46.80
14705;DHT22;7442;50.840;3.396;2022-08-01T13:43:47;28.80;46.60
14705;DHT22;7442;50.840;3.396;2022-08-01T13:46:33;28.70;47.10
14705;DHT22;7442;50.840;3.396;2022-08-01T13:49:20;28.70;46.70
14705;DHT22;7442;50.840;3.396;2022-08-01T13:52:09;28.50;46.40
14705;DHT22;7442;50.840;3.396;2022-08-01T13:54:55;28.60;46.40
14705;DHT22;7442;50.840;3.396;2022-08-01T13:57:42;28.60;46.50
14705;DHT22;7442;50.840;3.396;2022-08-01T14:00:28;28.60;46.60
14705;DHT22;7442;50.840;3.396;2022-08-01T14:03:14;28.60;46.20
14705;DHT22;7442;50.840;3.396;2022-08-01T14:06:02;28.60;46.50
14705;DHT22;7442;50.840;3.396;2022-08-01T14:08:49;28.60;47.30
14705;DHT22;7442;50.840;3.396;2022-08-01T14:11:36;28.60;48.40
14705;DHT22;7442;50.840;3.396;2022-08-01T14:14:22;28.70;47.60
14705;DHT22;7442;50.840;3.396;2022-08-01T14:17:08;28.90;46.50
14705;DHT22;7442;50.840;3.396;2022-08-01T14:19:55;28.90;47.20
14705;DHT22;7442;50.840;3.396;2022-08-01T14:22:46;29.00;46.40
14705;DHT22;7442;50.840;3.396;2022-08-01T14:25:33;28.90;47.10
14705;DHT22;7442;50.840;3.396;2022-08-01T14:28:21;28.90;46.50
14705;DHT22;7442;50.840;3.396;2022-08-01T14:31:08;28.80;46.90
14705;DHT22;7442;50.840;3.396;2022-08-01T14:33:56;28.90;46.80
14705;DHT22;7442;50.840;3.396;2022-08-01T14:36:42;28.90;45.60
14705;DHT22;7442;50.840;3.396;2022-08-01T14:39:29;28.80;45.50
14705;DHT22;7442;50.840;3.396;2022-08-01T14:42:15;28.90;45.70
14705;DHT22;7442;50.840;3.396;2022-08-01T14:45:03;28.90;46.10
14705;DHT22;7442;50.840;3.396;2022-08-01T14:47:51;28.90;46.20
14705;DHT22;7442;50.840;3.396;2022-08-01T14:50:44;29.00;45.80
14705;DHT22;7442;50.840;3.396;2022-08-01T14:53:31;28.90;45.40
14705;DHT22;7442;50.840;3.396;2022-08-01T14:56:18;28.90;45.30
14705;DHT22;7442;50.840;3.396;2022-08-01T14:59:04;28.90;45.50
14705;DHT22;7442;50.840;3.396;2022-08-01T15:01:50;28.90;45.90
14705;DHT22;7442;50.840;3.396;2022-08-01T15:04:37;29.00;46.00
14705;DHT22;7442;50.840;3.396;2022-08-01T15:07:23;29.10;46.40
14705;DHT22;7442;50.840;3.396;2022-08-01T15:10:09;29.10;46.30
14705;DHT22;7442;50.840;3.396;2022-08-01T15:12:58;29.10;45.20
14705;DHT22;7442;50.840;3.396;2022-08-01T15:15:45;29.10;45.00
14705;DHT22;7442;50.840;3.396;2022-08-01T15:18:32;29.00;44.70
14705;DHT22;7442;50.840;3.396;2022-08-01T15:21:18;29.00;45.00
14705;DHT22;7442;50.840;3.396;2022-08-01T15:24:05;28.80;45.00
14705;DHT22;7442;50.840;3.396;2022-08-01T15:26:51;28.70;45.00
14705;DHT22;7442;50.840;3.396;2022-08-01T15:29:38;28.70;45.40
14705;DHT22;7442;50.840;3.396;2022-08-01T15:32:26;28.70;45.00
14705;DHT22;7442;50.840;3.396;2022-08-01T15:35:13;28.70;45.10
14705;DHT22;7442;50.840;3.396;2022-08-01T15:37:59;28.70;45.00
14705;DHT22;7442;50.840;3.396;2022-08-01T15:40:45;28.70;45.10
14705;DHT22;7442;50.840;3.396;2022-08-01T15:43:32;28.70;45.10
14705;DHT22;7442;50.840;3.396;2022-08-01T15:46:18;28.80;45.30
14705;DHT22;7442;50.840;3.396;2022-08-01T15:49:09;28.80;45.50
14705;DHT22;7442;50.840;3.396;2022-08-01T15:51:56;28.70;46.00
14705;DHT22;7442;50.840;3.396;2022-08-01T15:54:49;28.70;46.40
14705;DHT22;7442;50.840;3.396;2022-08-01T15:57:35;28.70;46.40
14705;DHT22;7442;50.840;3.396;2022-08-01T16:00:23;28.70;46.20
14705;DHT22;7442;50.840;3.396;2022-08-01T16:03:09;28.70;46.30
14705;DHT22;7442;50.840;3.396;2022-08-01T16:06:04;28.70;45.90
14705;DHT22;7442;50.840;3.396;2022-08-01T16:08:52;28.70;45.50
14705;DHT22;7442;50.840;3.396;2022-08-01T16:11:38;28.70;45.70
14705;DHT22;7442;50.840;3.396;2022-08-01T16:14:25;28.60;46.00
14705;DHT22;7442;50.840;3.396;2022-08-01T16:17:11;28.60;45.70
14705;DHT22;7442;50.840;3.396;2022-08-01T16:19:58;28.50;46.10
14705;DHT22;7442;50.840;3.396;2022-08-01T16:22:50;28.50;46.30
14705;DHT22;7442;50.840;3.396;2022-08-01T16:25:36;28.60;46.10
14705;DHT22;7442;50.840;3.396;2022-08-01T16:28:24;28.60;46.40
14705;DHT22;7442;50.840;3.396;2022-08-01T16:31:10;28.60;46.40
14705;DHT22;7442;50.840;3.396;2022-08-01T16:33:57;28.50;45.90
14705;DHT22;7442;50.840;3.396;2022-08-01T16:36:43;28.50;46.20
14705;DHT22;7442;50.840;3.396;2022-08-01T16:39:29;28.60;45.80
14705;DHT22;7442;50.840;3.396;2022-08-01T16:42:16;28.50;46.10
14705;DHT22;7442;50.840;3.396;2022-08-01T16:45:02;28.60;46.10
14705;DHT22;7442;50.840;3.396;2022-08-01T16:47:49;28.60;46.20
14705;DHT22;7442;50.840;3.396;2022-08-01T16:50:35;28.40;45.70
14705;DHT22;7442;50.840;3.396;2022-08-01T16:53:23;28.30;45.70
14705;DHT22;7442;50.840;3.396;2022-08-01T16:56:09;28.40;45.90
14705;DHT22;7442;50.840;3.396;2022-08-01T16:58:55;28.40;45.70
14705;DHT22;7442;50.840;3.396;2022-08-01T17:01:43;28.50;45.50
14705;DHT22;7442;50.840;3.396;2022-08-01T17:04:30;28.50;46.00
14705;DHT22;7442;50.840;3.396;2022-08-01T17:07:17;28.50;45.60
14705;DHT22;7442;50.840;3.396;2022-08-01T17:10:05;28.60;46.20
14705;DHT22;7442;50.840;3.396;2022-08-01T17:12:51;28.50;45.80
14705;DHT22;7442;50.840;3.396;2022-08-01T17:15:38;28.50;45.60
14705;DHT22;7442;50.840;3.396;2022-08-01T17:18:24;28.50;46.40
14705;DHT22;7442;50.840;3.396;2022-08-01T17:21:10;28.50;46.30
14705;DHT22;7442;50.840;3.396;2022-08-01T17:23:57;28.30;45.90
14705;DHT22;7442;50.840;3.396;2022-08-01T17:26:43;28.30;46.30
14705;DHT22;7442;50.840;3.396;2022-08-01T17:29:29;28.20;46.50
14705;DHT22;7442;50.840;3.396;2022-08-01T17:32:17;28.30;46.40
14705;DHT22;7442;50.840;3.396;2022-08-01T17:35:03;28.30;46.40
14705;DHT22;7442;50.840;3.396;2022-08-01T17:37:51;28.20;46.60
14705;DHT22;7442;50.840;3.396;2022-08-01T17:40:38;28.20;46.50
14705;DHT22;7442;50.840;3.396;2022-08-01T17:43:24;28.10;46.20
14705;DHT22;7442;50.840;3.396;2022-08-01T17:46:10;28.10;46.50
14705;DHT22;7442;50.840;3.396;2022-08-01T17:48:58;28.10;47.80
14705;DHT22;7442;50.840;3.396;2022-08-01T17:51:47;28.10;47.80
14705;DHT22;7442;50.840;3.396;2022-08-01T17:54:33;28.00;47.50
14705;DHT22;7442;50.840;3.396;2022-08-01T17:57:20;28.10;47.30
14705;DHT22;7442;50.840;3.396;2022-08-01T18:00:07;28.10;46.90
14705;DHT22;7442;50.840;3.396;2022-08-01T18:02:53;28.30;46.80
14705;DHT22;7442;50.840;3.396;2022-08-01T18:05:40;28.40;46.70
14705;DHT22;7442;50.840;3.396;2022-08-01T18:08:27;28.30;46.30
14705;DHT22;7442;50.840;3.396;2022-08-01T18:11:17;28.20;47.50
14705;DHT22;7442;50.840;3.396;2022-08-01T18:14:04;28.10;48.10
14705;DHT22;7442;50.840;3.396;2022-08-01T18:16:51;28.10;47.70
14705;DHT22;7442;50.840;3.396;2022-08-01T18:19:38;28.20;47.90
14705;DHT22;7442;50.840;3.396;2022-08-01T18:22:24;28.30;48.10